createdAt,value
2023-07-24T00:00:04.512Z,21.40
2023-07-24T00:02:47.177Z,21.30
2023-07-24T00:05:30.245Z,21.30
2023-07-24T00:08:12.443Z,21.20
2023-07-24T00:10:54.921Z,21.30
2023-07-24T00:13:37.158Z,21.20
2023-07-24T00:16:19.626Z,21.20
2023-07-24T00:19:01.800Z,21.20
2023-07-24T00:21:44.215Z,21.10
2023-07-24T00:24:26.473Z,21.10
2023-07-24T00:27:09.094Z,21.00
2023-07-24T00:29:51.379Z,21.00
2023-07-24T00:32:33.932Z,21.00
2023-07-24T00:35:17.989Z,20.90
2023-07-24T00:38:00.441Z,21.00
2023-07-24T00:40:42.641Z,20.90
2023-07-24T00:43:25.130Z,20.90
2023-07-24T00:46:07.482Z,20.90
2023-07-24T00:48:50.954Z,20.90
2023-07-24T00:51:34.203Z,20.80
2023-07-24T00:54:17.996Z,20.70
2023-07-24T00:57:00.684Z,20.70
2023-07-24T00:59:43.767Z,20.70
2023-07-24T01:02:27.010Z,20.60
2023-07-24T01:05:12.226Z,20.60
2023-07-24T01:07:54.502Z,20.60
2023-07-24T01:10:36.951Z,20.60
2023-07-24T01:13:23.922Z,20.60
2023-07-24T01:16:14.199Z,20.60
2023-07-24T01:18:58.133Z,20.60
2023-07-24T01:21:59.682Z,20.50
2023-07-24T01:25:14.772Z,20.40
2023-07-24T01:27:57.174Z,20.30
2023-07-24T01:30:39.339Z,20.10
2023-07-24T01:33:22.660Z,20.00
2023-07-24T01:36:06.608Z,19.90
2023-07-24T01:38:51.711Z,19.80
2023-07-24T01:41:34.076Z,19.70
2023-07-24T01:44:16.696Z,19.60
2023-07-24T01:46:58.934Z,19.70
2023-07-24T01:49:41.446Z,19.70
2023-07-24T01:52:23.625Z,19.70
2023-07-24T01:55:06.517Z,19.70
2023-07-24T01:57:48.837Z,19.60
2023-07-24T02:00:31.398Z,19.60
2023-07-24T02:03:13.564Z,19.50
2023-07-24T02:05:56.057Z,19.60
2023-07-24T02:08:38.183Z,19.50
2023-07-24T02:11:21.310Z,19.40
2023-07-24T02:14:03.639Z,19.40
2023-07-24T02:16:46.063Z,19.30
2023-07-24T02:19:28.400Z,19.20
2023-07-24T02:22:11.883Z,19.20
2023-07-24T02:24:54.121Z,19.20
2023-07-24T02:27:36.646Z,19.20
2023-07-24T02:30:18.870Z,19.20
2023-07-24T02:33:01.301Z,19.30
2023-07-24T02:35:44.301Z,19.30
2023-07-24T02:38:26.816Z,19.40
2023-07-24T02:41:10.022Z,19.30
2023-07-24T02:43:52.675Z,19.30
2023-07-24T02:46:35.098Z,19.20
2023-07-24T02:49:18.200Z,19.10
2023-07-24T02:52:00.317Z,19.00
2023-07-24T02:54:42.764Z,18.90
2023-07-24T02:57:24.932Z,18.80
2023-07-24T03:00:09.007Z,18.70
2023-07-24T03:02:51.974Z,18.60
2023-07-24T03:05:37.743Z,18.50
2023-07-24T03:08:20.351Z,18.50
2023-07-24T03:11:06.813Z,18.50
2023-07-24T03:13:49.104Z,18.50
2023-07-24T03:16:31.832Z,18.50
2023-07-24T03:19:14.206Z,18.50
2023-07-24T03:21:56.628Z,18.50
2023-07-24T03:24:38.800Z,18.60
2023-07-24T03:27:21.330Z,18.60
2023-07-24T03:30:04.612Z,18.60
2023-07-24T03:32:47.138Z,18.70
2023-07-24T03:35:29.297Z,18.70
2023-07-24T03:38:11.756Z,18.70
2023-07-24T03:40:53.913Z,18.80
2023-07-24T03:43:36.433Z,18.80
2023-07-24T03:46:18.605Z,18.80
2023-07-24T03:49:01.154Z,18.80
2023-07-24T03:51:43.292Z,18.80
2023-07-24T03:54:25.755Z,18.80
2023-07-24T03:57:07.999Z,18.70
2023-07-24T03:59:50.428Z,18.70
2023-07-24T04:02:32.754Z,18.70
2023-07-24T04:05:15.306Z,18.70
2023-07-24T04:07:57.550Z,18.60
2023-07-24T04:10:40.012Z,18.70
2023-07-24T04:13:22.216Z,18.70
2023-07-24T04:16:05.128Z,18.80
2023-07-24T04:18:47.390Z,18.90
2023-07-24T04:21:29.916Z,19.00
2023-07-24T04:24:12.121Z,19.20
2023-07-24T04:26:54.560Z,19.30
2023-07-24T04:29:36.748Z,19.50
2023-07-24T04:32:19.176Z,19.60
2023-07-24T04:35:01.478Z,19.60
2023-07-24T04:37:44.440Z,19.70
2023-07-24T04:40:26.660Z,19.70
2023-07-24T04:43:09.147Z,19.70
2023-07-24T04:45:51.474Z,19.70
2023-07-24T04:48:33.930Z,19.70
2023-07-24T04:51:16.134Z,19.80
2023-07-24T04:53:58.882Z,19.80
2023-07-24T04:56:41.142Z,19.90
2023-07-24T04:59:24.984Z,19.90
2023-07-24T05:02:07.283Z,19.90
2023-07-24T05:04:49.798Z,20.00
2023-07-24T05:07:31.978Z,20.10
2023-07-24T05:10:14.713Z,20.10
2023-07-24T05:12:57.924Z,20.20
2023-07-24T05:15:40.385Z,20.30
2023-07-24T05:18:22.613Z,20.60
2023-07-24T05:21:05.075Z,20.90
2023-07-24T05:23:47.238Z,21.00
2023-07-24T05:26:29.978Z,21.10
2023-07-24T05:29:12.281Z,21.10
2023-07-24T05:31:54.759Z,21.20
2023-07-24T05:34:37.239Z,21.20
2023-07-24T05:37:19.817Z,21.30
2023-07-24T05:40:02.061Z,21.50
2023-07-24T05:42:44.759Z,21.80
2023-07-24T05:45:28.443Z,22.40
2023-07-24T05:48:10.920Z,23.10
2023-07-24T05:50:53.514Z,23.60
2023-07-24T05:53:36.093Z,24.30
2023-07-24T05:56:18.375Z,24.50
2023-07-24T05:59:01.018Z,24.50
2023-07-24T06:01:43.322Z,24.30
2023-07-24T06:04:26.034Z,24.50
2023-07-24T06:07:08.306Z,24.90
2023-07-24T06:09:51.238Z,25.00
2023-07-24T06:12:33.626Z,24.80
2023-07-24T06:15:16.308Z,24.80
2023-07-24T06:17:58.623Z,25.10
2023-07-24T06:20:41.536Z,25.30
2023-07-24T06:23:23.923Z,25.60
2023-07-24T06:26:06.666Z,25.80
2023-07-24T06:28:48.911Z,25.70
2023-07-24T06:31:31.473Z,25.60
2023-07-24T06:34:13.759Z,25.40
2023-07-24T06:37:01.349Z,25.30
2023-07-24T06:39:51.619Z,25.40
2023-07-24T06:42:34.471Z,25.40
2023-07-24T06:45:16.810Z,25.40
2023-07-24T06:47:59.449Z,25.50
2023-07-24T06:50:41.882Z,25.50
2023-07-24T06:53:24.593Z,25.60
2023-07-24T06:56:07.125Z,25.80
2023-07-24T06:58:49.716Z,25.80
2023-07-24T07:01:32.211Z,25.80
2023-07-24T07:04:14.854Z,25.60
2023-07-24T07:06:57.111Z,25.60
2023-07-24T07:09:39.718Z,25.60
2023-07-24T07:12:22.516Z,25.50
2023-07-24T07:15:05.584Z,25.50
2023-07-24T07:17:48.054Z,25.60
2023-07-24T07:20:30.650Z,25.50
2023-07-24T07:23:12.917Z,25.60
2023-07-24T07:25:55.497Z,25.70
2023-07-24T07:28:38.783Z,25.80
2023-07-24T07:31:21.657Z,25.80
2023-07-24T07:34:03.980Z,25.70
2023-07-24T07:36:46.639Z,25.60
2023-07-24T07:39:28.937Z,25.80
2023-07-24T07:42:18.208Z,26.00
2023-07-24T07:45:01.424Z,26.10
2023-07-24T07:47:44.117Z,26.10
2023-07-24T07:50:26.586Z,26.00
2023-07-24T07:53:09.193Z,26.10
2023-07-24T07:55:58.865Z,26.00
2023-07-24T07:58:41.443Z,25.90
2023-07-24T08:01:23.832Z,25.80
2023-07-24T08:04:06.626Z,25.70
2023-07-24T08:06:48.866Z,25.70
2023-07-24T08:09:31.334Z,25.70
2023-07-24T08:12:13.638Z,25.70
2023-07-24T08:14:57.405Z,25.70
2023-07-24T08:17:39.869Z,25.80
2023-07-24T08:20:22.598Z,25.80
2023-07-24T08:23:05.451Z,25.80
2023-07-24T08:25:55.486Z,25.80
2023-07-24T08:28:37.969Z,25.80
2023-07-24T08:31:20.675Z,25.80
2023-07-24T08:34:02.915Z,25.90
2023-07-24T08:36:45.569Z,26.00
2023-07-24T08:39:27.788Z,26.10
2023-07-24T08:42:12.425Z,26.00
2023-07-24T08:44:55.562Z,26.00
2023-07-24T08:47:39.439Z,25.90
2023-07-24T08:50:22.877Z,25.90
2023-07-24T08:53:05.693Z,26.00
2023-07-24T08:55:52.857Z,26.10
2023-07-24T08:58:36.247Z,26.10
2023-07-24T09:01:18.522Z,26.20
2023-07-24T09:04:01.196Z,26.30
2023-07-24T09:06:43.946Z,26.50
2023-07-24T09:09:32.458Z,26.70
2023-07-24T09:12:17.098Z,26.80
2023-07-24T09:15:08.072Z,27.00
2023-07-24T09:17:54.845Z,27.20
2023-07-24T09:20:43.446Z,27.50
2023-07-24T09:23:29.642Z,27.60
2023-07-24T09:26:12.230Z,27.90
2023-07-24T09:28:55.464Z,28.10
2023-07-24T09:31:38.057Z,28.30
2023-07-24T09:34:20.568Z,28.30
2023-07-24T09:37:04.262Z,28.40
2023-07-24T09:39:47.903Z,28.40
2023-07-24T09:42:35.065Z,28.40
2023-07-24T09:45:17.385Z,28.40
2023-07-24T09:48:06.301Z,28.50
2023-07-24T09:50:58.037Z,28.60
2023-07-24T09:54:27.568Z,28.70
2023-07-24T09:57:19.880Z,28.80
2023-07-24T10:00:04.994Z,28.60
2023-07-24T10:02:48.638Z,28.40
2023-07-24T10:05:31.459Z,28.50
2023-07-24T10:08:17.938Z,28.70
2023-07-24T10:11:00.937Z,28.80
2023-07-24T10:13:44.315Z,28.80
2023-07-24T10:16:26.976Z,28.80
2023-07-24T10:19:17.338Z,29.00
2023-07-24T10:22:00.061Z,28.80
2023-07-24T10:24:42.995Z,28.60
2023-07-24T10:27:26.745Z,28.50
2023-07-24T10:30:22.736Z,28.30
2023-07-24T10:33:18.541Z,28.20
2023-07-24T10:36:11.034Z,28.10
2023-07-24T10:38:55.689Z,28.10
2023-07-24T10:41:39.084Z,28.10
2023-07-24T10:44:32.881Z,28.00
2023-07-24T10:47:15.241Z,28.10
2023-07-24T10:49:59.127Z,28.40
2023-07-24T10:52:42.037Z,28.50
2023-07-24T10:55:28.481Z,28.40
2023-07-24T10:58:12.381Z,28.20
2023-07-24T11:00:57.202Z,28.30
2023-07-24T11:03:42.229Z,28.40
2023-07-24T11:06:25.085Z,28.50
2023-07-24T11:09:07.575Z,28.80
2023-07-24T11:11:53.082Z,29.20
2023-07-24T11:14:35.485Z,29.40
2023-07-24T11:17:18.808Z,29.50
2023-07-24T11:20:16.201Z,29.50
2023-07-24T11:22:59.921Z,29.50
2023-07-24T11:25:42.689Z,29.80
2023-07-24T11:28:28.512Z,29.80
2023-07-24T11:31:13.116Z,29.90
2023-07-24T11:33:55.825Z,30.00
2023-07-24T11:36:38.251Z,30.20
2023-07-24T11:39:27.065Z,30.10
2023-07-24T11:42:09.772Z,29.90
2023-07-24T11:44:52.312Z,29.90
2023-07-24T11:47:51.988Z,30.00
2023-07-24T11:50:46.336Z,29.90
2023-07-24T11:53:30.098Z,29.80
2023-07-24T11:56:17.198Z,29.70
2023-07-24T11:59:09.923Z,29.80
2023-07-24T12:01:52.988Z,30.00
2023-07-24T12:04:35.304Z,30.10
2023-07-24T12:07:18.082Z,30.30
2023-07-24T12:10:02.406Z,30.40
2023-07-24T12:12:47.220Z,30.60
2023-07-24T12:15:30.176Z,30.70
2023-07-24T12:18:12.998Z,30.70
2023-07-24T12:20:55.792Z,30.50
2023-07-24T12:23:38.585Z,30.20
2023-07-24T12:26:21.508Z,30.20
2023-07-24T12:29:04.171Z,30.00
2023-07-24T12:31:46.553Z,29.90
2023-07-24T12:34:29.136Z,29.90
2023-07-24T12:37:11.594Z,29.80
2023-07-24T12:39:54.249Z,29.70
2023-07-24T12:42:37.083Z,29.70
2023-07-24T12:45:20.096Z,29.70
2023-07-24T12:48:03.011Z,29.70
2023-07-24T12:50:46.020Z,29.70
2023-07-24T12:53:29.820Z,29.70
2023-07-24T12:56:18.234Z,29.60
2023-07-24T12:59:02.762Z,29.70
2023-07-24T13:01:46.333Z,29.60
2023-07-24T13:04:28.689Z,29.50
2023-07-24T13:07:11.739Z,29.50
2023-07-24T13:09:54.079Z,29.60
2023-07-24T13:12:37.233Z,29.50
2023-07-24T13:15:19.606Z,29.50
2023-07-24T13:18:10.739Z,29.40
2023-07-24T13:21:00.590Z,29.50
2023-07-24T13:23:44.034Z,29.40
2023-07-24T13:26:26.444Z,29.40
2023-07-24T13:29:09.219Z,29.40
2023-07-24T13:31:53.411Z,29.50
2023-07-24T13:34:36.166Z,29.70
2023-07-24T13:37:18.540Z,29.80
2023-07-24T13:40:01.213Z,30.00
2023-07-24T13:42:43.601Z,30.20
2023-07-24T13:45:26.368Z,30.10
2023-07-24T13:48:08.853Z,30.10
2023-07-24T13:50:54.452Z,29.90
2023-07-24T13:53:37.052Z,29.90
2023-07-24T13:56:20.151Z,30.00
2023-07-24T13:59:02.718Z,30.20
2023-07-24T14:01:45.994Z,30.20
2023-07-24T14:04:29.435Z,30.20
2023-07-24T14:07:14.146Z,30.20
2023-07-24T14:09:56.805Z,30.10
2023-07-24T14:12:40.043Z,29.90
2023-07-24T14:15:22.600Z,29.80
2023-07-24T14:18:05.282Z,29.90
2023-07-24T14:20:48.446Z,29.90
2023-07-24T14:23:31.915Z,29.90
2023-07-24T14:26:14.213Z,29.90
2023-07-24T14:28:58.059Z,29.90
2023-07-24T14:31:40.606Z,29.90
2023-07-24T14:34:23.214Z,29.80
2023-07-24T14:37:06.173Z,29.80
2023-07-24T14:39:48.690Z,29.80
2023-07-24T14:42:30.869Z,29.80
2023-07-24T14:45:13.400Z,29.90
2023-07-24T14:47:55.599Z,29.80
2023-07-24T14:50:38.392Z,29.70
2023-07-24T14:53:20.767Z,29.60
2023-07-24T14:56:03.330Z,29.40
2023-07-24T14:58:46.627Z,29.40
2023-07-24T15:01:30.280Z,29.30
2023-07-24T15:04:15.133Z,29.30
2023-07-24T15:06:58.018Z,29.40
2023-07-24T15:09:40.451Z,29.30
2023-07-24T15:12:24.333Z,29.30
2023-07-24T15:15:07.411Z,29.20
2023-07-24T15:17:50.074Z,29.20
2023-07-24T15:20:33.652Z,29.20
2023-07-24T15:23:16.296Z,29.20
2023-07-24T15:25:59.410Z,29.20
2023-07-24T15:28:42.714Z,29.20
2023-07-24T15:31:24.936Z,29.20
2023-07-24T15:34:07.699Z,29.20
2023-07-24T15:36:49.898Z,29.10
2023-07-24T15:39:32.414Z,29.10
2023-07-24T15:42:14.522Z,29.10
2023-07-24T15:44:56.982Z,29.10
2023-07-24T15:47:39.163Z,29.10
2023-07-24T15:50:21.612Z,29.00
2023-07-24T15:53:03.831Z,28.90
2023-07-24T15:55:46.219Z,29.00
2023-07-24T15:58:28.403Z,29.00
2023-07-24T16:01:11.345Z,29.00
2023-07-24T16:03:53.570Z,28.90
2023-07-24T16:06:36.066Z,29.10
2023-07-24T16:09:18.589Z,29.20
2023-07-24T16:12:01.025Z,29.30
2023-07-24T16:14:43.405Z,29.20
2023-07-24T16:17:25.985Z,29.20
2023-07-24T16:20:09.059Z,29.10
2023-07-24T16:22:52.262Z,29.00
2023-07-24T16:25:34.702Z,29.00
2023-07-24T16:28:17.331Z,28.90
2023-07-24T16:31:00.151Z,28.80
2023-07-24T16:33:42.685Z,28.70
2023-07-24T16:36:25.271Z,28.60
2023-07-24T16:39:07.879Z,28.50
2023-07-24T16:41:50.931Z,28.40
2023-07-24T16:44:37.365Z,28.40
2023-07-24T16:47:20.840Z,28.30
2023-07-24T16:50:04.240Z,28.20
2023-07-24T16:52:46.590Z,28.20
2023-07-24T16:55:30.385Z,28.10
2023-07-24T16:58:13.350Z,28.10
2023-07-24T17:00:56.103Z,28.00
2023-07-24T17:03:38.542Z,27.90
2023-07-24T17:06:21.333Z,27.60
2023-07-24T17:09:03.888Z,27.40
2023-07-24T17:11:46.670Z,27.20
2023-07-24T17:14:29.106Z,27.10
2023-07-24T17:17:11.760Z,26.90
2023-07-24T17:19:54.024Z,26.70
2023-07-24T17:22:37.323Z,26.50
2023-07-24T17:25:21.189Z,26.30
2023-07-24T17:28:04.791Z,26.20
2023-07-24T17:30:47.727Z,26.00
2023-07-24T17:33:30.686Z,25.80
2023-07-24T17:36:13.814Z,25.70
2023-07-24T17:38:57.667Z,25.50
2023-07-24T17:41:40.398Z,25.40
2023-07-24T17:44:23.298Z,25.40
2023-07-24T17:47:05.661Z,25.30
2023-07-24T17:50:01.193Z,25.20
2023-07-24T17:52:48.868Z,25.00
2023-07-24T17:55:32.197Z,24.80
2023-07-24T17:58:14.717Z,24.70
2023-07-24T18:00:57.760Z,24.50
2023-07-24T18:03:40.089Z,24.40
2023-07-24T18:06:22.665Z,24.30
2023-07-24T18:09:04.976Z,24.10
2023-07-24T18:11:47.482Z,24.00
2023-07-24T18:14:29.987Z,23.90
2023-07-24T18:17:13.300Z,23.80
2023-07-24T18:19:55.587Z,23.60
2023-07-24T18:22:38.145Z,23.50
2023-07-24T18:25:20.568Z,23.40
2023-07-24T18:28:03.137Z,23.40
2023-07-24T18:30:45.767Z,23.30
2023-07-24T18:33:28.531Z,23.20
2023-07-24T18:36:11.306Z,23.20
2023-07-24T18:38:53.940Z,23.10
2023-07-24T18:41:36.121Z,23.10
2023-07-24T18:44:18.968Z,23.10
2023-07-24T18:47:01.841Z,23.00
2023-07-24T18:49:44.663Z,23.00
2023-07-24T18:52:30.117Z,23.00
2023-07-24T18:55:13.468Z,22.90
2023-07-24T18:57:56.188Z,22.80
2023-07-24T19:00:41.442Z,22.80
2023-07-24T19:03:24.090Z,22.70
2023-07-24T19:06:08.089Z,22.70
2023-07-24T19:08:50.904Z,22.70
2023-07-24T19:11:34.104Z,22.70
2023-07-24T19:14:16.650Z,22.70
2023-07-24T19:16:59.603Z,22.70
2023-07-24T19:19:42.679Z,22.60
2023-07-24T19:22:25.316Z,22.60
2023-07-24T19:25:08.104Z,22.60
2023-07-24T19:27:51.125Z,22.60
2023-07-24T19:30:33.488Z,22.60
2023-07-24T19:33:16.843Z,22.60
2023-07-24T19:36:02.014Z,22.60
2023-07-24T19:38:44.815Z,22.60
2023-07-24T19:41:27.289Z,22.60
2023-07-24T19:44:10.455Z,22.50
2023-07-24T19:46:53.198Z,22.50
2023-07-24T19:49:40.687Z,22.50
2023-07-24T19:52:23.901Z,22.50
2023-07-24T19:55:08.348Z,22.40
2023-07-24T19:57:52.239Z,22.40
2023-07-24T20:00:35.879Z,22.40
2023-07-24T20:03:19.645Z,22.40
2023-07-24T20:06:07.231Z,22.40
2023-07-24T20:08:50.016Z,22.30
2023-07-24T20:11:32.838Z,22.30
2023-07-24T20:14:15.261Z,22.30
2023-07-24T20:16:58.162Z,22.20
2023-07-24T20:19:40.389Z,22.20
2023-07-24T20:22:22.982Z,22.20
2023-07-24T20:25:05.520Z,22.10
2023-07-24T20:27:48.127Z,22.10
2023-07-24T20:30:30.386Z,22.10
2023-07-24T20:33:13.096Z,22.00
2023-07-24T20:35:55.316Z,22.10
2023-07-24T20:38:38.407Z,22.00
2023-07-24T20:41:20.573Z,22.00
2023-07-24T20:44:06.277Z,22.00
2023-07-24T20:46:48.550Z,22.00
2023-07-24T20:49:31.098Z,22.00
2023-07-24T20:52:13.556Z,22.00
2023-07-24T20:54:55.977Z,22.00
2023-07-24T20:57:38.172Z,22.00
2023-07-24T21:00:21.312Z,22.00
2023-07-24T21:03:04.690Z,22.00
2023-07-24T21:05:47.424Z,21.90
2023-07-24T21:08:30.368Z,21.90
2023-07-24T21:11:12.913Z,21.80
2023-07-24T21:13:55.044Z,21.80
2023-07-24T21:16:39.337Z,21.70
2023-07-24T21:19:21.517Z,21.60
2023-07-24T21:22:04.145Z,21.60
2023-07-24T21:24:46.349Z,21.60
2023-07-24T21:27:28.806Z,21.60
2023-07-24T21:30:11.632Z,21.50
2023-07-24T21:32:54.160Z,21.50
2023-07-24T21:35:36.425Z,21.40
2023-07-24T21:38:18.815Z,21.40
2023-07-24T21:41:01.003Z,21.30
2023-07-24T21:43:43.467Z,21.30
2023-07-24T21:46:25.673Z,21.30
2023-07-24T21:49:08.251Z,21.30
2023-07-24T21:51:50.499Z,21.30
2023-07-24T21:54:33.465Z,21.20
2023-07-24T21:57:16.654Z,21.20
2023-07-24T21:59:59.159Z,21.20
2023-07-24T22:02:41.397Z,21.20
2023-07-24T22:05:23.920Z,21.20
2023-07-24T22:08:06.133Z,21.20
2023-07-24T22:10:48.547Z,21.20
2023-07-24T22:13:30.739Z,21.20
2023-07-24T22:16:13.924Z,21.10
2023-07-24T22:18:56.062Z,21.10
2023-07-24T22:21:38.515Z,21.10
2023-07-24T22:24:21.964Z,21.10
2023-07-24T22:27:04.789Z,21.10
2023-07-24T22:29:46.960Z,21.10
2023-07-24T22:32:29.410Z,21.10
2023-07-24T22:35:12.141Z,21.10
2023-07-24T22:37:54.642Z,21.10
2023-07-24T22:40:36.834Z,21.10
2023-07-24T22:43:19.698Z,21.10
2023-07-24T22:46:01.997Z,21.10
2023-07-24T22:48:44.557Z,21.10
2023-07-24T22:51:26.739Z,21.00
2023-07-24T22:54:09.138Z,21.00
2023-07-24T22:56:51.242Z,21.00
2023-07-24T22:59:33.682Z,20.90
2023-07-24T23:02:15.850Z,20.90
2023-07-24T23:04:58.366Z,20.80
2023-07-24T23:07:40.785Z,20.80
2023-07-24T23:10:23.322Z,20.80
2023-07-24T23:13:05.458Z,20.70
2023-07-24T23:15:47.884Z,20.70
2023-07-24T23:18:30.365Z,20.60
2023-07-24T23:21:12.807Z,20.60
2023-07-24T23:23:55.005Z,20.50
2023-07-24T23:26:37.499Z,20.50
2023-07-24T23:29:19.668Z,20.40
2023-07-24T23:32:02.113Z,20.40
2023-07-24T23:34:44.294Z,20.40
2023-07-24T23:37:26.747Z,20.30
2023-07-24T23:40:09.398Z,20.30
2023-07-24T23:42:51.882Z,20.20
2023-07-24T23:45:35.281Z,20.20
2023-07-24T23:48:17.707Z,20.20
2023-07-24T23:50:59.866Z,20.20
2023-07-24T23:53:42.794Z,20.10
2023-07-24T23:56:25.057Z,20.10
2023-07-24T23:59:07.445Z,20.10
